createdAt,value
2023-04-17T00:00:39.022Z,100380.00
2023-04-17T00:03:05.797Z,100382.31
2023-04-17T00:05:33.646Z,100381.63
2023-04-17T00:08:00.561Z,100385.72
2023-04-17T00:10:27.115Z,100380.00
2023-04-17T00:12:53.493Z,100388.53
2023-04-17T00:15:20.435Z,100379.06
2023-04-17T00:17:47.058Z,100378.72
2023-04-17T00:20:13.692Z,100381.00
2023-04-17T00:22:40.256Z,100382.22
2023-04-17T00:25:07.442Z,100386.28
2023-04-17T00:27:34.146Z,100382.84
2023-04-17T00:30:01.620Z,100382.16
2023-04-17T00:32:28.499Z,100378.56
2023-04-17T00:34:55.937Z,100383.13
2023-04-17T00:37:22.443Z,100386.91
2023-04-17T00:39:48.866Z,100385.13
2023-04-17T00:42:15.328Z,100385.44
2023-04-17T00:44:41.898Z,100392.31
2023-04-17T00:47:08.510Z,100383.50
2023-04-17T00:49:35.150Z,100383.16
2023-04-17T00:52:02.681Z,100388.59
2023-04-17T00:54:29.450Z,100385.13
2023-04-17T00:56:56.790Z,100382.69
2023-04-17T00:59:23.995Z,100381.19
2023-04-17T01:01:50.531Z,100384.66
2023-04-17T01:04:17.718Z,100384.50
2023-04-17T01:06:44.795Z,100381.25
2023-04-17T01:09:12.151Z,100381.06
2023-04-17T01:11:39.536Z,100382.88
2023-04-17T01:14:06.273Z,100383.56
2023-04-17T01:16:33.821Z,100380.44
2023-04-17T01:19:00.834Z,100382.56
2023-04-17T01:21:28.186Z,100383.38
2023-04-17T01:23:55.243Z,100376.66
2023-04-17T01:26:23.547Z,100381.72
2023-04-17T01:28:54.596Z,100379.44
2023-04-17T01:31:21.874Z,100383.22
2023-04-17T01:33:49.175Z,100377.97
2023-04-17T01:36:16.605Z,100387.78
2023-04-17T01:38:44.333Z,100375.22
2023-04-17T01:41:11.918Z,100380.94
2023-04-17T01:43:40.732Z,100388.78
2023-04-17T01:46:07.766Z,100384.50
2023-04-17T01:48:34.640Z,100394.31
2023-04-17T01:51:01.623Z,100388.13
2023-04-17T01:53:31.963Z,100385.53
2023-04-17T01:55:58.817Z,100387.19
2023-04-17T01:58:25.792Z,100384.22
2023-04-17T02:00:52.275Z,100390.75
2023-04-17T02:03:19.251Z,100388.13
2023-04-17T02:05:47.314Z,100387.66
2023-04-17T02:08:14.309Z,100386.34
2023-04-17T02:10:41.893Z,100385.84
2023-04-17T02:13:09.607Z,100382.59
2023-04-17T02:15:39.406Z,100387.31
2023-04-17T02:18:06.747Z,100388.00
2023-04-17T02:20:34.241Z,100396.66
2023-04-17T02:23:01.859Z,100396.66
2023-04-17T02:25:28.807Z,100393.69
2023-04-17T02:27:56.685Z,100398.59
2023-04-17T02:30:24.528Z,100394.50
2023-04-17T02:32:52.871Z,100393.88
2023-04-17T02:35:26.099Z,100398.13
2023-04-17T02:37:53.024Z,100393.06
2023-04-17T02:40:19.612Z,100396.00
2023-04-17T02:42:46.120Z,100387.13
2023-04-17T02:45:12.745Z,100392.56
2023-04-17T02:47:39.325Z,100398.59
2023-04-17T02:50:06.614Z,100393.38
2023-04-17T02:52:33.413Z,100393.22
2023-04-17T02:55:00.381Z,100398.09
2023-04-17T02:57:27.074Z,100392.06
2023-04-17T02:59:53.579Z,100393.69
2023-04-17T03:02:23.978Z,100392.06
2023-04-17T03:04:51.726Z,100388.47
2023-04-17T03:07:19.431Z,100386.69
2023-04-17T03:09:47.445Z,100391.09
2023-04-17T03:12:15.042Z,100388.16
2023-04-17T03:14:41.920Z,100397.16
2023-04-17T03:17:09.499Z,100393.88
2023-04-17T03:19:36.008Z,100395.03
2023-04-17T03:22:03.204Z,100393.06
2023-04-17T03:24:30.313Z,100390.94
2023-04-17T03:26:57.597Z,100385.53
2023-04-17T03:29:24.131Z,100391.91
2023-04-17T03:31:50.706Z,100388.31
2023-04-17T03:34:18.164Z,100394.22
2023-04-17T03:36:44.702Z,100395.03
2023-04-17T03:39:11.508Z,100404.84
2023-04-17T03:41:38.698Z,100404.34
2023-04-17T03:44:05.705Z,100398.28
2023-04-17T03:46:32.109Z,100396.19
2023-04-17T03:48:58.494Z,100404.66
2023-04-17T03:51:24.919Z,100404.03
2023-04-17T03:53:51.727Z,100400.09
2023-04-17T03:56:18.149Z,100410.72
2023-04-17T03:58:45.268Z,100417.91
2023-04-17T04:01:12.655Z,100414.00
2023-04-17T04:03:39.398Z,100414.00
2023-04-17T04:06:07.293Z,100416.59
2023-04-17T04:08:33.801Z,100410.53
2023-04-17T04:11:03.392Z,100411.69
2023-04-17T04:13:29.870Z,100420.50
2023-04-17T04:15:56.321Z,100421.03
2023-04-17T04:18:22.824Z,100420.84
2023-04-17T04:20:50.015Z,100422.66
2023-04-17T04:23:16.879Z,100425.59
2023-04-17T04:25:43.672Z,100420.84
2023-04-17T04:28:10.684Z,100423.94
2023-04-17T04:30:38.670Z,100429.66
2023-04-17T04:33:06.055Z,100419.38
2023-04-17T04:35:32.675Z,100423.28
2023-04-17T04:38:02.422Z,100419.38
2023-04-17T04:40:30.696Z,100426.06
2023-04-17T04:42:58.547Z,100429.66
2023-04-17T04:45:25.451Z,100435.22
2023-04-17T04:47:51.829Z,100429.78
2023-04-17T04:50:18.471Z,100435.69
2023-04-17T04:52:44.970Z,100439.63
2023-04-17T04:55:12.584Z,100442.72
2023-04-17T04:57:39.049Z,100435.88
2023-04-17T05:00:08.770Z,100442.09
2023-04-17T05:02:35.803Z,100438.81
2023-04-17T05:05:02.456Z,100447.00
2023-04-17T05:07:28.898Z,100437.03
2023-04-17T05:09:55.555Z,100445.34
2023-04-17T05:12:22.114Z,100447.44
2023-04-17T05:14:48.671Z,100446.34
2023-04-17T05:17:15.773Z,100451.72
2023-04-17T05:19:42.218Z,100454.03
2023-04-17T05:22:08.740Z,100444.06
2023-04-17T05:24:35.326Z,100458.13
2023-04-17T05:27:02.260Z,100456.47
2023-04-17T05:29:28.692Z,100454.88
2023-04-17T05:31:55.207Z,100460.25
2023-04-17T05:34:21.602Z,100465.63
2023-04-17T05:36:48.342Z,100469.38
2023-04-17T05:39:14.876Z,100462.00
2023-04-17T05:41:41.412Z,100466.59
2023-04-17T05:44:08.296Z,100469.69
2023-04-17T05:46:34.773Z,100471.78
2023-04-17T05:49:01.594Z,100474.09
2023-04-17T05:51:28.754Z,100474.56
2023-04-17T05:53:55.387Z,100476.22
2023-04-17T05:56:21.928Z,100470.16
2023-04-17T05:58:48.584Z,100482.75
2023-04-17T06:01:17.714Z,100474.72
2023-04-17T06:03:44.312Z,100481.75
2023-04-17T06:06:11.045Z,100483.06
2023-04-17T06:08:37.466Z,100481.75
2023-04-17T06:11:03.875Z,100482.41
2023-04-17T06:13:30.628Z,100486.03
2023-04-17T06:15:57.045Z,100486.66
2023-04-17T06:18:23.615Z,100492.22
2023-04-17T06:20:50.564Z,100489.59
2023-04-17T06:23:17.009Z,100488.09
2023-04-17T06:25:43.445Z,100496.97
2023-04-17T06:28:10.444Z,100497.41
2023-04-17T06:30:37.761Z,100501.34
2023-04-17T06:33:04.438Z,100501.00
2023-04-17T06:35:31.162Z,100508.03
2023-04-17T06:37:58.187Z,100509.75
2023-04-17T06:40:24.734Z,100514.38
2023-04-17T06:42:51.858Z,100510.00
2023-04-17T06:45:19.140Z,100506.09
2023-04-17T06:47:46.654Z,100512.16
2023-04-17T06:50:13.211Z,100522.97
2023-04-17T06:52:39.711Z,100521.34
2023-04-17T06:55:06.584Z,100529.66
2023-04-17T06:57:34.091Z,100531.28
2023-04-17T07:00:00.766Z,100541.25
2023-04-17T07:02:27.607Z,100540.56
2023-04-17T07:04:55.175Z,100535.78
2023-04-17T07:07:21.847Z,100541.31
2023-04-17T07:09:48.582Z,100533.84
2023-04-17T07:12:15.427Z,100543.69
2023-04-17T07:14:42.273Z,100548.56
2023-04-17T07:17:09.255Z,100546.31
2023-04-17T07:19:38.047Z,100557.44
2023-04-17T07:22:05.679Z,100552.38
2023-04-17T07:24:34.990Z,100570.69
2023-04-17T07:27:04.617Z,100561.22
2023-04-17T07:29:31.341Z,100563.66
2023-04-17T07:31:58.047Z,100573.63
2023-04-17T07:34:25.247Z,100576.56
2023-04-17T07:36:54.481Z,100581.63
2023-04-17T07:39:21.486Z,100580.03
2023-04-17T07:41:49.119Z,100589.00
2023-04-17T07:44:16.141Z,100586.53
2023-04-17T07:46:42.620Z,100594.56
2023-04-17T07:49:11.388Z,100595.03
2023-04-17T07:51:41.259Z,100591.28
2023-04-17T07:54:08.033Z,100591.13
2023-04-17T07:56:34.666Z,100589.31
2023-04-17T07:59:01.302Z,100602.38
2023-04-17T08:01:27.953Z,100597.19
2023-04-17T08:03:55.564Z,100597.50
2023-04-17T08:06:22.685Z,100602.72
2023-04-17T08:08:49.058Z,100612.38
2023-04-17T08:11:15.561Z,100603.38
2023-04-17T08:13:42.896Z,100611.06
2023-04-17T08:16:10.022Z,100619.56
2023-04-17T08:18:37.777Z,100619.25
2023-04-17T08:21:04.739Z,100626.25
2023-04-17T08:23:31.342Z,100613.63
2023-04-17T08:25:58.300Z,100622.94
2023-04-17T08:28:25.120Z,100617.94
2023-04-17T08:30:51.858Z,100623.31
2023-04-17T08:33:18.612Z,100618.75
2023-04-17T08:35:45.445Z,100624.03
2023-04-17T08:38:14.176Z,100630.16
2023-04-17T08:40:46.625Z,100634.91
2023-04-17T08:43:18.736Z,100626.19
2023-04-17T08:45:53.653Z,100631.84
2023-04-17T08:48:21.837Z,100628.09
2023-04-17T08:50:49.859Z,100634.59
2023-04-17T08:53:17.414Z,100636.31
2023-04-17T08:55:45.335Z,100635.50
2023-04-17T08:58:12.666Z,100645.34
2023-04-17T09:00:41.259Z,100643.09
2023-04-17T09:03:11.238Z,100635.03
2023-04-17T09:05:41.660Z,100643.72
2023-04-17T09:08:24.028Z,100646.25
2023-04-17T09:10:52.246Z,100640.31
2023-04-17T09:13:21.098Z,100644.00
2023-04-17T09:16:04.259Z,100647.50
2023-04-17T09:18:31.643Z,100653.59
2023-04-17T09:21:01.924Z,100643.91
2023-04-17T09:23:30.681Z,100658.78
2023-04-17T09:26:07.680Z,100655.66
2023-04-17T09:28:39.485Z,100662.00
2023-04-17T09:31:27.346Z,100657.97
2023-04-17T09:33:58.192Z,100665.41
2023-04-17T09:36:24.906Z,100666.22
2023-04-17T09:38:51.762Z,100663.69
2023-04-17T09:41:31.988Z,100671.34
2023-04-17T09:44:05.419Z,100669.41
2023-04-17T09:46:41.359Z,100667.09
2023-04-17T09:49:42.096Z,100679.59
2023-04-17T09:52:09.197Z,100668.91
2023-04-17T09:54:39.138Z,100667.56
2023-04-17T09:57:10.079Z,100668.56
2023-04-17T09:59:48.919Z,100667.34
2023-04-17T10:02:17.794Z,100672.47
2023-04-17T10:04:45.496Z,100667.97
2023-04-17T10:07:13.224Z,100672.00
2023-04-17T10:09:45.712Z,100669.81
2023-04-17T10:12:16.997Z,100665.84
2023-04-17T10:14:46.972Z,100670.28
2023-04-17T10:17:32.416Z,100669.81
2023-04-17T10:20:19.986Z,100665.53
2023-04-17T10:22:54.072Z,100667.28
2023-04-17T10:25:25.252Z,100679.56
2023-04-17T10:27:53.485Z,100671.38
2023-04-17T10:30:22.623Z,100676.78
2023-04-17T10:33:12.991Z,100673.06
2023-04-17T10:35:39.898Z,100669.38
2023-04-17T10:38:08.372Z,100671.34
2023-04-17T10:40:36.189Z,100673.41
2023-04-17T10:43:14.724Z,100675.00
2023-04-17T10:46:01.913Z,100670.59
2023-04-17T10:48:38.097Z,100673.38
2023-04-17T10:51:23.589Z,100668.56
2023-04-17T10:53:51.676Z,100670.41
2023-04-17T10:56:29.043Z,100674.03
2023-04-17T10:59:09.553Z,100675.44
2023-04-17T11:01:48.449Z,100675.06
2023-04-17T11:04:26.679Z,100677.19
2023-04-17T11:06:54.176Z,100672.38
2023-04-17T11:09:21.988Z,100681.41
2023-04-17T11:11:48.566Z,100679.59
2023-04-17T11:14:20.378Z,100684.81
2023-04-17T11:16:51.151Z,100683.97
2023-04-17T11:19:23.090Z,100680.00
2023-04-17T11:21:52.549Z,100680.63
2023-04-17T11:24:30.086Z,100686.34
2023-04-17T11:26:59.891Z,100679.00
2023-04-17T11:29:27.076Z,100678.53
2023-04-17T11:31:56.250Z,100685.22
2023-04-17T11:34:23.202Z,100679.66
2023-04-17T11:36:57.178Z,100682.66
2023-04-17T11:39:25.665Z,100688.91
2023-04-17T11:41:52.700Z,100688.78
2023-04-17T11:44:20.580Z,100685.91
2023-04-17T11:46:51.764Z,100689.94
2023-04-17T11:49:28.888Z,100693.00
2023-04-17T11:51:59.053Z,100690.53
2023-04-17T11:54:28.819Z,100695.59
2023-04-17T11:57:03.018Z,100691.78
2023-04-17T11:59:33.898Z,100692.53
2023-04-17T12:02:02.118Z,100696.91
2023-04-17T12:04:30.213Z,100696.53
2023-04-17T12:06:58.545Z,100701.03
2023-04-17T12:09:31.266Z,100698.25
2023-04-17T12:11:58.685Z,100703.94
2023-04-17T12:14:26.664Z,100697.34
2023-04-17T12:16:53.206Z,100701.28
2023-04-17T12:19:19.925Z,100700.75
2023-04-17T12:21:49.210Z,100702.31
2023-04-17T12:24:19.249Z,100697.75
2023-04-17T12:26:47.075Z,100695.59
2023-04-17T12:29:14.776Z,100700.97
2023-04-17T12:31:41.781Z,100694.22
2023-04-17T12:34:08.327Z,100698.97
2023-04-17T12:36:35.014Z,100699.38
2023-04-17T12:39:01.635Z,100701.09
2023-04-17T12:41:28.122Z,100705.91
2023-04-17T12:43:54.659Z,100701.16
2023-04-17T12:46:21.466Z,100698.63
2023-04-17T12:48:48.062Z,100695.44
2023-04-17T12:51:14.451Z,100695.41
2023-04-17T12:53:40.947Z,100704.84
2023-04-17T12:56:07.774Z,100704.44
2023-04-17T12:58:34.278Z,100709.03
2023-04-17T13:01:00.773Z,100705.25
2023-04-17T13:03:27.871Z,100714.78
2023-04-17T13:05:54.448Z,100706.75
2023-04-17T13:08:20.959Z,100710.09
2023-04-17T13:10:47.369Z,100712.31
2023-04-17T13:13:13.787Z,100713.13
2023-04-17T13:15:40.401Z,100714.75
2023-04-17T13:18:08.061Z,100716.72
2023-04-17T13:20:34.572Z,100712.81
2023-04-17T13:23:01.081Z,100724.50
2023-04-17T13:25:29.474Z,100719.88
2023-04-17T13:27:55.935Z,100723.97
2023-04-17T13:30:22.930Z,100720.75
2023-04-17T13:32:49.697Z,100718.03
2023-04-17T13:35:16.182Z,100721.56
2023-04-17T13:37:42.730Z,100712.47
2023-04-17T13:40:12.529Z,100723.88
2023-04-17T13:42:39.128Z,100716.94
2023-04-17T13:45:06.883Z,100714.22
2023-04-17T13:47:33.384Z,100721.63
2023-04-17T13:50:00.073Z,100716.19
2023-04-17T13:52:26.886Z,100724.25
2023-04-17T13:54:53.338Z,100720.31
2023-04-17T13:57:19.795Z,100728.56
2023-04-17T13:59:46.447Z,100730.22
2023-04-17T14:02:12.883Z,100734.94
2023-04-17T14:04:39.493Z,100731.31
2023-04-17T14:07:06.236Z,100721.00
2023-04-17T14:09:32.773Z,100713.44
2023-04-17T14:11:59.250Z,100719.50
2023-04-17T14:14:29.228Z,100717.84
2023-04-17T14:16:56.530Z,100726.00
2023-04-17T14:19:23.734Z,100723.09
2023-04-17T14:21:50.720Z,100717.72
2023-04-17T14:24:17.394Z,100707.16
2023-04-17T14:26:43.839Z,100711.28
2023-04-17T14:29:10.866Z,100722.72
2023-04-17T14:31:37.996Z,100722.00
2023-04-17T14:34:04.449Z,100715.66
2023-04-17T14:36:31.201Z,100718.09
2023-04-17T14:38:58.656Z,100721.00
2023-04-17T14:41:29.740Z,100731.91
2023-04-17T14:43:56.537Z,100715.84
2023-04-17T14:46:23.014Z,100715.50
2023-04-17T14:48:55.553Z,100722.63
2023-04-17T14:51:26.716Z,100725.09
2023-04-17T14:53:53.491Z,100726.19
2023-04-17T14:56:21.508Z,100727.97
2023-04-17T14:58:48.515Z,100720.34
2023-04-17T15:01:15.237Z,100725.63
2023-04-17T15:03:43.759Z,100725.38
2023-04-17T15:06:12.081Z,100727.50
2023-04-17T15:08:38.954Z,100730.75
2023-04-17T15:11:06.250Z,100726.69
2023-04-17T15:13:33.029Z,100731.91
2023-04-17T15:15:59.549Z,100735.84
2023-04-17T15:18:27.140Z,100729.03
2023-04-17T15:20:53.579Z,100736.88
2023-04-17T15:23:21.156Z,100734.63
2023-04-17T15:25:47.530Z,100730.94
2023-04-17T15:28:14.099Z,100735.38
2023-04-17T15:30:41.170Z,100736.94
2023-04-17T15:33:09.817Z,100742.19
2023-04-17T15:35:36.871Z,100748.03
2023-04-17T15:38:03.375Z,100743.19
2023-04-17T15:40:29.808Z,100748.13
2023-04-17T15:42:56.281Z,100744.56
2023-04-17T15:45:22.909Z,100757.03
2023-04-17T15:47:49.565Z,100755.56
2023-04-17T15:50:16.131Z,100752.47
2023-04-17T15:52:42.853Z,100756.09
2023-04-17T15:55:09.811Z,100760.22
2023-04-17T15:57:36.634Z,100755.47
2023-04-17T16:00:03.865Z,100758.06
2023-04-17T16:02:30.804Z,100760.53
2023-04-17T16:04:57.414Z,100760.34
2023-04-17T16:07:24.058Z,100764.91
2023-04-17T16:09:50.898Z,100763.81
2023-04-17T16:12:17.757Z,100763.47
2023-04-17T16:14:44.179Z,100753.66
2023-04-17T16:17:10.682Z,100767.59
2023-04-17T16:19:37.112Z,100760.72
2023-04-17T16:22:03.544Z,100758.56
2023-04-17T16:24:30.072Z,100762.16
2023-04-17T16:26:58.273Z,100763.13
2023-04-17T16:29:25.218Z,100761.81
2023-04-17T16:31:52.781Z,100757.50
2023-04-17T16:34:20.741Z,100756.59
2023-04-17T16:36:47.956Z,100767.88
2023-04-17T16:39:14.471Z,100758.22
2023-04-17T16:41:41.225Z,100766.41
2023-04-17T16:44:07.688Z,100761.75
2023-04-17T16:46:52.057Z,100757.88
2023-04-17T16:49:21.198Z,100764.75
2023-04-17T16:51:47.918Z,100768.28
2023-04-17T16:54:14.633Z,100771.78
2023-04-17T16:56:41.991Z,100771.63
2023-04-17T16:59:08.575Z,100773.03
2023-04-17T17:01:35.264Z,100766.81
2023-04-17T17:04:02.022Z,100767.03
2023-04-17T17:06:29.129Z,100766.97
2023-04-17T17:08:55.657Z,100776.78
2023-04-17T17:11:22.812Z,100779.88
2023-04-17T17:13:51.205Z,100783.13
2023-04-17T17:16:19.556Z,100774.63
2023-04-17T17:18:47.449Z,100772.94
2023-04-17T17:21:14.578Z,100774.94
2023-04-17T17:23:41.322Z,100772.19
2023-04-17T17:26:08.380Z,100777.75
2023-04-17T17:28:37.742Z,100782.66
2023-04-17T17:31:08.406Z,100781.03
2023-04-17T17:33:35.843Z,100781.00
2023-04-17T17:36:03.057Z,100787.53
2023-04-17T17:38:30.782Z,100783.28
2023-04-17T17:40:57.270Z,100785.25
2023-04-17T17:43:23.940Z,100785.53
2023-04-17T17:45:50.751Z,100783.09
2023-04-17T17:48:18.186Z,100787.03
2023-04-17T17:50:44.854Z,100788.66
2023-04-17T17:53:11.821Z,100794.56
2023-04-17T17:55:38.840Z,100787.53
2023-04-17T17:58:06.991Z,100790.81
2023-04-17T18:00:34.129Z,100789.63
2023-04-17T18:03:01.155Z,100793.19
2023-04-17T18:05:28.141Z,100789.84
2023-04-17T18:07:54.722Z,100798.09
2023-04-17T18:10:21.181Z,100784.81
2023-04-17T18:12:49.152Z,100793.53
2023-04-17T18:15:15.707Z,100797.06
2023-04-17T18:17:42.252Z,100794.16
2023-04-17T18:20:09.465Z,100793.47
2023-04-17T18:22:37.925Z,100802.44
2023-04-17T18:25:06.972Z,100801.09
2023-04-17T18:27:36.226Z,100806.84
2023-04-17T18:30:05.229Z,100809.63
2023-04-17T18:32:32.078Z,100802.56
2023-04-17T18:34:59.352Z,100806.81
2023-04-17T18:37:25.895Z,100805.34
2023-04-17T18:39:52.631Z,100804.53
2023-04-17T18:42:19.199Z,100806.53
2023-04-17T18:44:45.796Z,100810.22
2023-04-17T18:47:12.429Z,100810.00
2023-04-17T18:49:38.819Z,100816.50
2023-04-17T18:52:05.605Z,100817.84
2023-04-17T18:54:32.510Z,100816.38
2023-04-17T18:56:59.052Z,100814.25
2023-04-17T18:59:28.007Z,100819.78
2023-04-17T19:01:54.491Z,100816.00
2023-04-17T19:04:21.769Z,100805.81
2023-04-17T19:06:49.353Z,100823.28
2023-04-17T19:09:15.813Z,100822.97
2023-04-17T19:11:42.728Z,100817.66
2023-04-17T19:14:09.306Z,100827.47
2023-04-17T19:16:35.901Z,100823.47
2023-04-17T19:19:02.335Z,100827.25
2023-04-17T19:21:31.187Z,100822.78
2023-04-17T19:23:57.680Z,100826.28
2023-04-17T19:26:24.269Z,100821.50
2023-04-17T19:28:50.743Z,100820.50
2023-04-17T19:31:17.987Z,100828.38
2023-04-17T19:33:44.809Z,100821.34
2023-04-17T19:36:11.384Z,100825.25
2023-04-17T19:38:37.830Z,100820.50
2023-04-17T19:41:12.316Z,100829.56
2023-04-17T19:43:38.799Z,100828.75
2023-04-17T19:46:05.703Z,100832.78
2023-04-17T19:48:32.155Z,100824.56
2023-04-17T19:51:00.059Z,100824.59
2023-04-17T19:53:31.107Z,100827.06
2023-04-17T19:55:57.804Z,100822.81
2023-04-17T19:58:24.270Z,100819.91
2023-04-17T20:00:50.843Z,100818.38
2023-04-17T20:03:17.491Z,100819.88
2023-04-17T20:05:44.689Z,100822.31
2023-04-17T20:08:11.156Z,100825.09
2023-04-17T20:10:37.713Z,100827.44
2023-04-17T20:13:04.269Z,100826.59
2023-04-17T20:15:30.729Z,100829.38
2023-04-17T20:17:57.285Z,100835.66
2023-04-17T20:20:23.839Z,100830.78
2023-04-17T20:22:50.334Z,100835.25
2023-04-17T20:25:16.951Z,100833.94
2023-04-17T20:27:43.746Z,100832.53
2023-04-17T20:30:10.778Z,100832.09
2023-04-17T20:32:37.388Z,100833.56
2023-04-17T20:35:04.429Z,100832.56
2023-04-17T20:37:30.893Z,100827.84
2023-04-17T20:39:57.293Z,100833.03
2023-04-17T20:42:23.741Z,100829.44
2023-04-17T20:44:50.226Z,100826.22
2023-04-17T20:47:16.793Z,100821.06
2023-04-17T20:49:43.223Z,100811.22
2023-04-17T20:52:09.896Z,100812.94
2023-04-17T20:54:36.492Z,100809.34
2023-04-17T20:57:03.086Z,100813.63
2023-04-17T20:59:29.711Z,100820.81
2023-04-17T21:01:56.309Z,100820.31
2023-04-17T21:04:22.830Z,100820.94
2023-04-17T21:06:49.331Z,100819.94
2023-04-17T21:09:16.474Z,100822.19
2023-04-17T21:11:42.991Z,100823.09
2023-04-17T21:14:09.455Z,100821.69
2023-04-17T21:16:36.009Z,100820.94
2023-04-17T21:19:02.560Z,100821.31
2023-04-17T21:21:29.172Z,100822.78
2023-04-17T21:23:55.876Z,100813.94
2023-04-17T21:26:22.370Z,100820.25
2023-04-17T21:28:48.864Z,100818.91
2023-04-17T21:31:15.558Z,100809.66
2023-04-17T21:33:42.015Z,100810.97
2023-04-17T21:36:09.130Z,100808.72
2023-04-17T21:38:35.676Z,100815.06
2023-04-17T21:41:02.110Z,100805.94
2023-04-17T21:43:28.480Z,100807.69
2023-04-17T21:45:57.044Z,100811.09
2023-04-17T21:48:23.937Z,100814.75
2023-04-17T21:50:51.178Z,100813.13
2023-04-17T21:53:17.744Z,100806.75
2023-04-17T21:55:44.251Z,100805.94
2023-04-17T21:58:10.901Z,100815.59
2023-04-17T22:00:37.574Z,100810.34
2023-04-17T22:03:04.274Z,100809.53
2023-04-17T22:05:30.720Z,100808.06
2023-04-17T22:07:57.269Z,100816.41
2023-04-17T22:10:24.205Z,100815.78
2023-04-17T22:12:50.886Z,100817.41
2023-04-17T22:15:17.571Z,100817.53
2023-04-17T22:17:44.660Z,100814.75
2023-04-17T22:20:11.712Z,100822.00
2023-04-17T22:22:38.285Z,100831.34
2023-04-17T22:25:05.343Z,100816.28
2023-04-17T22:27:31.717Z,100811.66
2023-04-17T22:29:58.155Z,100821.69
2023-04-17T22:32:24.800Z,100820.25
2023-04-17T22:34:51.306Z,100818.59
2023-04-17T22:37:18.662Z,100821.44
2023-04-17T22:39:45.418Z,100824.84
2023-04-17T22:42:11.977Z,100814.06
2023-04-17T22:44:38.484Z,100817.03
2023-04-17T22:47:04.987Z,100818.22
2023-04-17T22:49:37.952Z,100815.00
2023-04-17T22:52:06.114Z,100822.13
2023-04-17T22:54:35.609Z,100824.47
2023-04-17T22:57:05.043Z,100814.94
2023-04-17T22:59:31.585Z,100820.94
2023-04-17T23:01:58.399Z,100821.63
2023-04-17T23:04:25.477Z,100820.69
2023-04-17T23:06:52.073Z,100816.28
2023-04-17T23:09:18.511Z,100816.78
2023-04-17T23:11:44.905Z,100817.78
2023-04-17T23:14:12.213Z,100814.94
2023-04-17T23:16:38.870Z,100809.91
2023-04-17T23:19:05.593Z,100806.31
2023-04-17T23:21:32.238Z,100807.06
2023-04-17T23:23:59.333Z,100804.63
2023-04-17T23:26:25.899Z,100799.63
2023-04-17T23:28:52.943Z,100799.19
2023-04-17T23:31:19.807Z,100804.31
2023-04-17T23:33:46.531Z,100807.13
2023-04-17T23:36:13.744Z,100806.56
2023-04-17T23:38:40.366Z,100799.75
2023-04-17T23:41:06.816Z,100806.78
2023-04-17T23:43:33.336Z,100800.25
2023-04-17T23:46:00.869Z,100802.09
2023-04-17T23:48:28.198Z,100796.31
2023-04-17T23:50:55.280Z,100802.41
2023-04-17T23:53:22.326Z,100795.66
2023-04-17T23:55:48.802Z,100802.91
2023-04-17T23:58:15.298Z,100797.34
